Time;durP1;ratioP1;P1;durP2;ratioP2;P2;SDS_P1;SDS_P2;PMS_P1;PMS_P2;Temp;Humidity;BMP_temperature;BMP_pressure;BME280_temperature;BME280_humidity;BME280_pressure;Samples;Min_cycle;Max_cycle;Signal;HPM_P1;HPM_P2
2023/01/09 00:00:08;;;;;;;;;30.50;27.50;;;;;9.78;87.20;99015.28;6280419;20;2829451;-59
2023/01/09 00:02:39;;;;;;;;;32.00;23.33;;;;;9.62;87.76;99015.50;6281574;20;2870157;-59
2023/01/09 00:05:11;;;;;;;;;25.50;25.50;;;;;9.63;87.57;99022.56;6311637;20;2856550;-59
2023/01/09 00:07:40;;;;;;;;;27.00;25.00;;;;;9.83;87.23;99016.69;6282394;20;2845159;-59
2023/01/09 00:10:11;;;;;;;;;24.50;24.50;;;;;9.72;87.59;99021.94;6311364;20;2841047;-59
2023/01/09 00:12:42;;;;;;;;;25.00;20.50;;;;;9.61;88.23;99021.78;6277031;20;2831775;-58
2023/01/09 00:15:12;;;;;;;;;30.33;22.00;;;;;9.51;88.19;99018.06;6283809;20;3600387;-58
2023/01/09 00:17:41;;;;;;;;;32.33;27.33;;;;;9.54;88.95;99017.84;6312094;20;3618007;-58
2023/01/09 00:20:12;;;;;;;;;28.67;27.00;;;;;9.42;89.02;99006.13;6311340;20;3572268;-60
2023/01/09 00:22:41;;;;;;;;;28.50;22.50;;;;;9.55;88.22;99016.84;6310515;20;2856607;-60
2023/01/09 00:25:10;;;;;;;;;30.67;28.67;;;;;9.42;88.49;99019.50;6284516;20;3602567;-59
2023/01/09 00:27:39;;;;;;;;;28.00;26.33;;;;;9.43;88.68;99019.41;6283269;20;3591912;-60
2023/01/09 00:30:10;;;;;;;;;35.67;31.67;;;;;9.29;88.92;99024.84;6313901;20;3611086;-59
2023/01/09 00:32:40;;;;;;;;;34.00;33.00;;;;;9.43;88.64;99021.25;6279735;20;3598201;-59
2023/01/09 00:35:16;;;;;;;;;34.33;25.33;;;;;9.47;88.25;99021.88;6284373;20;3625274;-59
2023/01/09 00:37:45;;;;;;;;;37.67;32.33;;;;;9.32;89.18;99013.94;6315467;20;3598191;-60
2023/01/09 00:40:16;;;;;;;;;39.00;34.00;;;;;9.23;88.94;99015.38;6279953;20;3600370;-59
2023/01/09 00:42:54;;;;;;;;;39.67;32.67;;;;;9.31;89.18;99009.53;6309531;20;3602328;-59
2023/01/09 00:45:27;;;;;;;;;39.67;33.33;;;;;9.22;89.64;99008.31;6317296;20;3601285;-60
2023/01/09 00:48:25;;;;;;;;;33.00;29.00;;;;;9.28;88.84;99012.41;6281315;20;2852376;-57
2023/01/09 00:50:58;;;;;;;;;35.00;32.00;;;;;9.25;89.23;99007.25;6286090;20;3614869;-57
2023/01/09 00:53:31;;;;;;;;;47.33;35.33;;;;;9.33;89.16;99004.94;6280798;20;3639954;-57
2023/01/09 00:56:09;;;;;;;;;34.33;29.67;;;;;9.26;88.62;99003.63;6283053;20;3612813;-57
2023/01/09 00:58:38;;;;;;;;;39.33;35.67;;;;;9.23;88.78;99002.00;6320060;20;3601702;-58
2023/01/09 01:01:08;;;;;;;;;40.00;35.00;;;;;9.42;88.52;98993.56;6284524;20;2861782;-56
2023/01/09 01:03:37;;;;;;;;;40.00;34.00;;;;;9.29;88.89;98995.38;6322734;20;3607934;-58
2023/01/09 01:08:54;;;;;;;;;37.00;33.00;;;;;9.32;88.95;98986.25;6320166;20;3604444;-61
2023/01/09 01:11:23;;;;;;;;;37.00;33.00;;;;;9.21;88.67;98990.53;6285248;20;2732705;-58
2023/01/09 01:13:53;;;;;;;;;39.33;32.33;;;;;9.22;89.27;98986.03;6312853;20;3615941;-57
2023/01/09 01:16:22;;;;;;;;;40.33;35.00;;;;;9.28;89.28;98985.63;6321030;20;3607653;-58
2023/01/09 01:18:50;;;;;;;;;43.33;36.67;;;;;9.29;88.96;98987.31;6289332;20;3621146;-55
2023/01/09 01:21:20;;;;;;;;;37.67;32.67;;;;;9.30;89.06;98982.84;6285460;20;2840921;-58
2023/01/09 01:23:48;;;;;;;;;45.67;37.00;;;;;9.29;88.94;98976.63;6319865;20;3613919;-57
2023/01/09 01:26:17;;;;;;;;;50.33;38.00;;;;;9.35;88.73;98970.84;6286367;20;3606512;-58
2023/01/09 01:28:47;;;;;;;;;49.00;38.33;;;;;9.33;88.81;98975.47;6282534;20;2876434;-57
2023/01/09 01:31:18;;;;;;;;;43.00;34.33;;;;;9.23;89.02;98971.69;6320779;20;3603375;-58
2023/01/09 01:33:47;;;;;;;;;38.67;32.33;;;;;9.29;89.21;98971.25;6284483;20;3624201;-58
2023/01/09 01:36:16;;;;;;;;;38.00;32.33;;;;;9.28;89.01;98958.84;6318596;20;3600331;-58
2023/01/09 01:38:46;;;;;;;;;46.67;35.33;;;;;9.25;88.62;98969.75;6285021;20;3625218;-59
2023/01/09 01:41:28;;;;;;;;;41.00;33.00;;;;;9.23;88.55;98961.81;6318537;20;3608755;-58
2023/01/09 01:44:25;;;;;;;;;40.67;35.00;;;;;9.42;88.84;98963.25;6286458;20;2864699;-57
2023/01/09 01:46:56;;;;;;;;;42.33;33.67;;;;;9.29;88.64;98949.81;6321198;20;3617995;-58
2023/01/09 01:49:25;;;;;;;;;40.50;35.00;;;;;9.26;89.08;98952.72;6281309;20;2858636;-58
2023/01/09 01:51:54;;;;;;;;;41.00;35.33;;;;;9.27;89.16;98950.88;6283993;20;2863974;-58
2023/01/09 01:54:25;;;;;;;;;39.67;35.00;;;;;9.30;88.74;98948.88;6315945;20;3602398;-58
2023/01/09 01:57:01;;;;;;;;;40.50;34.50;;;;;9.32;88.74;98946.09;6283910;20;2855483;-58
2023/01/09 01:59:48;;;;;;;;;36.00;33.33;;;;;9.31;88.78;98941.69;6281478;20;2844103;-58
2023/01/09 02:02:24;;;;;;;;;40.67;35.33;;;;;9.35;88.76;98937.88;6313414;20;3599350;-57
2023/01/09 02:04:56;;;;;;;;;41.33;33.00;;;;;9.30;88.75;98932.81;6318425;20;3606568;-57
2023/01/09 02:07:27;;;;;;;;;43.33;34.33;;;;;9.28;89.11;98933.88;6283869;20;2869141;-58
2023/01/09 02:09:57;;;;;;;;;39.33;35.33;;;;;9.21;89.61;98922.72;6311337;20;2860881;-59
2023/01/09 02:12:27;;;;;;;;;42.67;34.67;;;;;9.25;90.35;98921.56;6315111;20;3610659;-57
2023/01/09 02:15:08;;;;;;;;;41.33;35.67;;;;;9.22;90.19;98922.63;6281030;20;2867181;-58
2023/01/09 02:18:06;;;;;;;;;44.33;35.67;;;;;9.26;89.85;98922.41;6318964;20;3613797;-58
2023/01/09 02:21:06;;;;;;;;;39.67;32.00;;;;;9.35;89.32;98911.91;6280832;20;3622269;-58
2023/01/09 02:24:17;;;;;;;;;29.00;27.33;;;;;9.23;88.55;98907.41;6313895;20;3598227;-58
2023/01/09 02:27:44;;;;;;;;;58.00;43.00;;;;;9.34;88.46;98903.97;6283168;20;2874240;-56
2023/01/09 02:30:36;;;;;;;;;38.67;29.67;;;;;9.28;88.66;98902.59;6314880;20;3617401;-58
2023/01/09 02:33:23;;;;;;;;;39.00;35.00;;;;;9.35;88.26;98906.56;6281624;20;3596312;-57
2023/01/09 02:36:24;;;;;;;;;42.67;35.33;;;;;9.34;88.63;98899.47;6282110;20;3610835;-58
2023/01/09 02:39:38;;;;;;;;;39.67;35.67;;;;;9.22;88.72;98894.97;6311532;20;3596125;-57
2023/01/09 02:42:22;;;;;;;;;40.67;35.33;;;;;9.23;89.18;98902.03;6281696;20;2865062;-59
2023/01/09 02:44:51;;;;;;;;;41.00;35.67;;;;;9.37;88.03;98898.41;6312538;20;3607014;-58
2023/01/09 02:47:21;;;;;;;;;41.33;35.67;;;;;9.36;88.11;98899.38;6281191;20;3616881;-58
2023/01/09 02:50:02;;;;;;;;;34.33;30.33;;;;;9.28;87.86;98896.38;6316381;20;3596079;-58
2023/01/09 02:53:15;;;;;;;;;39.67;36.00;;;;;9.35;87.92;98895.84;6281203;20;2864946;-59
2023/01/09 02:56:27;;;;;;;;;44.67;36.00;;;;;9.10;88.46;98885.09;6314787;20;3580695;-58
2023/01/09 02:59:37;;;;;;;;;37.00;33.33;;;;;9.21;88.76;98883.38;6282402;20;3599233;-58
2023/01/09 03:02:34;;;;;;;;;46.00;37.00;;;;;9.19;88.86;98879.97;6316448;20;3619069;-58
2023/01/09 03:05:22;;;;;;;;;40.33;33.00;;;;;9.15;89.05;98877.59;6317604;20;2858770;-58
2023/01/09 03:08:21;;;;;;;;;46.50;36.25;;;;;9.15;89.80;98877.59;6315314;20;3621282;-58
2023/01/09 03:10:58;;;;;;;;;36.33;30.67;;;;;9.14;90.20;98882.13;6312300;20;3602418;-59
2023/01/09 03:13:48;;;;;;;;;42.67;34.67;;;;;9.21;89.88;98871.81;6275879;20;3615025;-59
2023/01/09 03:16:30;;;;;;;;;43.67;37.00;;;;;9.02;90.41;98867.72;6311852;20;3611818;-59
2023/01/09 03:19:02;;;;;;;;;46.00;35.00;;;;;8.96;90.80;98860.13;6276299;20;3619026;-58
2023/01/09 03:21:33;;;;;;;;;38.67;32.67;;;;;9.01;90.75;98865.19;6310816;20;3602409;-58
2023/01/09 03:24:05;;;;;;;;;37.00;34.67;;;;;8.95;91.24;98861.09;6277673;20;3586806;-58
2023/01/09 03:26:35;;;;;;;;;41.00;34.00;;;;;8.88;91.28;98857.13;6278132;20;2861927;-58
2023/01/09 03:29:04;;;;;;;;;43.00;37.00;;;;;8.89;91.62;98850.78;6314548;20;3619076;-58
2023/01/09 03:31:33;;;;;;;;;42.00;36.50;;;;;8.87;91.91;98851.84;6280890;20;2869082;-58
2023/01/09 03:34:02;;;;;;;;;39.67;36.00;;;;;8.86;91.57;98845.66;6280890;20;3612849;-59
2023/01/09 03:36:31;;;;;;;;;45.67;36.67;;;;;8.96;91.05;98846.75;6317147;20;3621076;-59
2023/01/09 03:39:00;;;;;;;;;46.33;37.33;;;;;8.97;91.24;98842.25;6281639;20;3622141;-58
2023/01/09 03:41:29;;;;;;;;;52.67;39.33;;;;;8.77;92.64;98833.75;6283146;20;2872289;-58
2023/01/09 03:43:58;;;;;;;;;50.00;42.00;;;;;8.55;93.86;98834.34;6312223;20;2862779;-58
2023/01/09 03:46:27;;;;;;;;;51.00;40.00;;;;;8.34;94.76;98833.06;6284020;20;2868027;-58
2023/01/09 03:48:57;;;;;;;;;47.00;37.67;;;;;8.27;95.30;98831.78;6280266;20;3628395;-58
2023/01/09 03:51:27;;;;;;;;;51.33;37.00;;;;;8.30;95.69;98831.56;6312730;20;3628384;-58
2023/01/09 03:53:56;;;;;;;;;46.67;40.00;;;;;8.26;95.45;98824.69;6311159;20;2866912;-58
2023/01/09 03:56:25;;;;;;;;;55.00;43.67;;;;;8.35;95.50;98829.44;6311779;20;2854864;-58
2023/01/09 03:58:55;;;;;;;;;54.67;43.67;;;;;8.22;95.62;98818.69;6314298;20;3607561;-59
2023/01/09 04:01:23;;;;;;;;;37.67;34.67;;;;;8.19;95.32;98815.34;6318925;20;3592061;-59
2023/01/09 04:03:52;;;;;;;;;50.50;41.50;;;;;8.18;95.38;98827.00;6282007;20;2855549;-59
2023/01/09 04:06:22;;;;;;;;;54.00;41.00;;;;;8.25;95.55;98822.97;6282671;20;2855558;-59
2023/01/09 04:08:51;;;;;;;;;51.67;43.67;;;;;8.26;95.58;98819.34;6316193;20;2869108;-58
2023/01/09 04:11:21;;;;;;;;;49.50;39.50;;;;;8.39;95.44;98819.38;6312892;20;2865357;-59
2023/01/09 04:13:50;;;;;;;;;51.00;40.50;;;;;8.44;95.51;98823.50;6278604;20;2847158;-58
2023/01/09 04:16:19;;;;;;;;;54.67;41.33;;;;;8.37;95.10;98822.16;6280946;20;2865955;-58
2023/01/09 04:18:48;;;;;;;;;51.00;40.50;;;;;8.30;95.53;98820.88;6314862;20;2848267;-59
2023/01/09 04:21:17;;;;;;;;;52.67;41.33;;;;;8.33;95.52;98815.31;6277940;20;2862891;-59
2023/01/09 04:23:46;;;;;;;;;54.00;42.00;;;;;8.41;95.64;98818.34;6311198;20;2867070;-59
2023/01/09 04:26:15;;;;;;;;;45.33;37.00;;;;;8.22;95.87;98823.19;6277974;20;2854696;-59
2023/01/09 04:28:45;;;;;;;;;55.00;43.00;;;;;8.09;96.32;98820.47;6311540;20;3600291;-58
2023/01/09 04:31:14;;;;;;;;;60.67;44.67;;;;;8.00;97.49;98813.03;6307277;20;3621119;-59
2023/01/09 04:33:44;;;;;;;;;60.00;45.00;;;;;7.99;97.21;98811.31;6311335;20;3632597;-59
2023/01/09 04:36:13;;;;;;;;;51.00;43.00;;;;;7.93;97.66;98814.41;6310081;20;2847260;-58
2023/01/09 04:38:42;;;;;;;;;54.00;45.67;;;;;7.95;97.84;98820.47;6280686;20;2873289;-58
2023/01/09 04:41:47;;;;;;;;;52.00;42.33;;;;;7.85;98.12;98813.06;6311097;20;2856594;-58
2023/01/09 04:44:00;;;;;;;;;55.50;42.00;;;;;7.86;98.41;98811.25;6310464;20;2864861;-58
2023/01/09 04:46:29;;;;;;;;;50.50;42.50;;;;;7.79;98.26;98813.44;6280740;20;2842028;-57
2023/01/09 04:48:58;;;;;;;;;54.33;43.67;;;;;7.87;98.87;98807.59;6282322;20;2866942;-59
2023/01/09 04:51:27;;;;;;;;;55.00;43.00;;;;;7.82;98.30;98815.06;6309700;20;2869241;-59
2023/01/09 04:53:56;;;;;;;;;52.50;42.00;;;;;7.83;97.74;98811.47;6278533;20;2856508;-59
2023/01/09 04:56:25;;;;;;;;;58.00;44.33;;;;;7.70;98.99;98811.38;6279599;20;2883689;-59
2023/01/09 04:58:55;;;;;;;;;50.33;38.00;;;;;7.57;99.82;98805.97;6312575;20;3622172;-58
2023/01/09 05:01:24;;;;;;;;;54.33;43.33;;;;;7.61;99.22;98807.50;6314285;20;2858652;-58
2023/01/09 05:03:54;;;;;;;;;54.33;44.33;;;;;7.52;99.70;98800.03;6306776;20;2869256;-59
2023/01/09 05:06:23;;;;;;;;;59.00;48.00;;;;;7.66;99.52;98805.38;6310669;20;2858625;-58
2023/01/09 05:08:52;;;;;;;;;54.00;43.00;;;;;7.70;98.82;98808.72;6279043;20;2743006;-60
2023/01/09 05:11:24;;;;;;;;;63.00;50.00;;;;;7.60;99.85;98805.75;6308463;20;2877452;-59
2023/01/09 05:13:53;;;;;;;;;55.50;43.00;;;;;7.65;99.85;98816.16;6309612;20;2867367;-59
2023/01/09 05:16:23;;;;;;;;;56.00;44.67;;;;;7.66;98.99;98813.41;6280465;20;2861720;-58
2023/01/09 05:18:55;;;;;;;;;61.33;48.67;;;;;7.74;99.10;98812.03;6311438;20;2864952;-58
2023/01/09 05:21:25;;;;;;;;;59.67;45.33;;;;;7.73;99.81;98810.31;6313706;20;3618020;-59
2023/01/09 05:23:54;;;;;;;;;57.50;47.00;;;;;7.69;99.98;98817.69;6308170;20;2855662;-58
2023/01/09 05:26:24;;;;;;;;;57.33;45.00;;;;;7.66;100.00;98805.38;6277148;20;2877472;-59
2023/01/09 05:28:57;;;;;;;;;53.33;42.33;;;;;7.59;100.00;98811.22;6312811;20;3609790;-59
2023/01/09 05:31:27;;;;;;;;;56.33;46.67;;;;;7.77;99.54;98811.84;6309573;20;2862785;-60
2023/01/09 05:33:58;;;;;;;;;53.50;45.00;;;;;7.74;99.79;98812.03;6306742;20;2861709;-59
2023/01/09 05:36:28;;;;;;;;;54.67;45.33;;;;;7.78;99.81;98808.22;6282036;20;2873277;-59
2023/01/09 05:38:57;;;;;;;;;59.33;46.00;;;;;7.66;100.00;98810.72;6318446;20;2865902;-59
2023/01/09 05:41:27;;;;;;;;;63.00;48.33;;;;;7.85;98.32;98809.56;6315631;20;2877330;-59
2023/01/09 05:43:55;;;;;;;;;60.50;50.00;;;;;7.90;97.99;98810.13;6315946;20;2857729;-59
2023/01/09 05:46:25;;;;;;;;;63.33;49.00;;;;;7.76;98.18;98810.13;6283432;20;2870163;-59
2023/01/09 05:48:54;;;;;;;;;58.00;45.67;;;;;7.80;97.85;98800.97;6314272;20;3591954;-59
2023/01/09 05:51:24;;;;;;;;;59.00;46.33;;;;;7.66;98.85;98809.84;6316534;20;2876537;-60
2023/01/09 05:53:52;;;;;;;;;50.50;42.00;;;;;7.72;98.22;98800.59;6311615;20;2832694;-60
2023/01/09 05:56:21;;;;;;;;;61.00;47.00;;;;;7.64;99.12;98798.44;6277099;20;2866991;-59
2023/01/09 05:58:51;;;;;;;;;55.00;44.33;;;;;7.65;99.33;98811.66;6287399;20;3613882;-59
2023/01/09 06:01:20;;;;;;;;;60.67;45.33;;;;;7.75;98.16;98806.59;6314216;20;3629386;-59
2023/01/09 06:03:52;;;;;;;;;62.00;48.33;;;;;7.81;98.15;98808.88;6314314;20;3615926;-58
2023/01/09 06:06:23;;;;;;;;;57.00;44.33;;;;;7.57;98.69;98800.63;6317490;20;3620058;-58
2023/01/09 06:08:52;;;;;;;;;59.00;47.00;;;;;7.62;98.24;98803.84;6316005;20;3608683;-58
2023/01/09 06:11:22;;;;;;;;;54.67;44.33;;;;;7.74;97.73;98812.91;6317260;20;2869387;-59
2023/01/09 06:13:51;;;;;;;;;54.00;43.33;;;;;7.53;98.38;98824.94;6313784;20;2863875;-59
2023/01/09 06:16:21;;;;;;;;;58.33;47.67;;;;;7.62;98.46;98806.53;6315975;20;2874432;-58
2023/01/09 06:18:49;;;;;;;;;51.50;42.50;;;;;7.55;97.62;98813.19;6314450;20;2851313;-59
2023/01/09 06:21:18;;;;;;;;;53.50;41.50;;;;;7.46;98.03;98797.78;6282926;20;2851439;-59
2023/01/09 06:23:47;;;;;;;;;41.33;33.67;;;;;7.75;97.55;98800.41;6285426;20;3619060;-58
2023/01/09 06:26:16;;;;;;;;;56.33;41.33;;;;;7.75;97.67;98803.06;6285898;20;3611748;-58
2023/01/09 06:28:46;;;;;;;;;52.00;39.00;;;;;7.70;97.64;98795.34;6313657;20;3622131;-58
2023/01/09 06:31:15;;;;;;;;;51.67;40.67;;;;;7.63;98.15;98788.66;6311452;20;2857580;-59
2023/01/09 06:33:44;;;;;;;;;54.50;41.00;;;;;7.55;97.94;98786.50;6314398;20;2857067;-58
2023/01/09 06:36:12;;;;;;;;;53.00;42.00;;;;;7.68;97.21;98797.25;6286072;20;2580523;-58
2023/01/09 06:38:40;;;;;;;;;54.00;44.00;;;;;7.40;97.16;98801.69;6285647;20;2854413;-59
2023/01/09 06:41:10;;;;;;;;;51.00;39.67;;;;;7.49;97.55;98802.91;6279053;20;2876310;-58
2023/01/09 06:43:40;;;;;;;;;55.00;42.00;;;;;7.59;96.55;98795.19;6312546;20;2856814;-58
2023/01/09 06:46:10;;;;;;;;;62.67;45.33;;;;;7.48;96.06;98796.72;6318537;20;3636719;-59
2023/01/09 06:48:39;;;;;;;;;56.67;43.00;;;;;7.40;97.67;98799.03;6313034;20;3616070;-58
2023/01/09 06:51:08;;;;;;;;;46.00;39.00;;;;;7.47;97.36;98800.31;6318234;20;2846115;-58
2023/01/09 06:53:37;;;;;;;;;49.00;39.00;;;;;7.29;96.88;98790.81;6278943;20;2875408;-58
2023/01/09 06:56:07;;;;;;;;;58.33;41.00;;;;;7.27;97.07;98803.41;6311275;20;3628497;-58
2023/01/09 06:58:36;;;;;;;;;54.50;42.00;;;;;7.52;97.01;98805.38;6314547;20;2865848;-58
2023/01/09 07:01:05;;;;;;;;;53.33;39.33;;;;;7.54;95.96;98805.31;6281533;20;3635731;-60
2023/01/09 07:03:35;;;;;;;;;53.00;41.33;;;;;7.59;96.52;98820.06;6316724;20;2873886;-58
2023/01/09 07:06:05;;;;;;;;;53.00;41.00;;;;;7.41;96.89;98823.91;6314435;20;2853424;-60
2023/01/09 07:08:35;;;;;;;;;57.00;42.00;;;;;7.44;97.20;98827.22;6283828;20;3620141;-59
2023/01/09 07:11:04;;;;;;;;;46.00;38.33;;;;;7.35;97.59;98838.50;6317607;20;3602495;-59
2023/01/09 07:13:33;;;;;;;;;48.00;36.67;;;;;7.50;97.31;98842.00;6313412;20;3628375;-60
2023/01/09 07:16:04;;;;;;;;;46.33;37.33;;;;;7.46;97.77;98835.16;6284391;20;2864322;-58
2023/01/09 07:18:33;;;;;;;;;43.00;38.33;;;;;7.49;96.30;98837.63;6318167;20;3616060;-59
2023/01/09 07:21:04;;;;;;;;;49.67;42.00;;;;;7.38;98.96;98838.31;6285604;20;2862797;-59
2023/01/09 07:23:34;;;;;;;;;51.00;40.50;;;;;7.40;99.66;98838.22;6313293;20;2848299;-59
2023/01/09 07:26:03;;;;;;;;;42.50;37.00;;;;;7.55;98.61;98842.59;6283470;20;2847584;-58
2023/01/09 07:28:32;;;;;;;;;64.00;47.67;;;;;7.59;97.56;98841.44;6282955;20;2868317;-59
2023/01/09 07:31:03;;;;;;;;;55.50;47.50;;;;;7.48;98.80;98836.78;6316230;20;2854522;-58
2023/01/09 07:33:33;;;;;;;;;61.33;48.00;;;;;7.51;98.29;98833.06;6278447;20;2866942;-59
2023/01/09 07:36:03;;;;;;;;;71.00;55.67;;;;;7.72;97.86;98835.34;6312986;20;3633662;-58
2023/01/09 07:38:32;;;;;;;;;56.00;42.00;;;;;7.81;95.96;98840.94;6314071;20;2857839;-58
2023/01/09 07:41:02;;;;;;;;;70.33;52.00;;;;;7.81;95.17;98840.09;6286400;20;3640993;-59
2023/01/09 07:43:31;;;;;;;;;66.67;53.33;;;;;7.65;96.52;98834.84;6309361;20;3625237;-59
2023/01/09 07:46:00;;;;;;;;;49.50;42.00;;;;;7.98;95.60;98826.50;6311521;20;2850277;-60
2023/01/09 07:48:29;;;;;;;;;43.67;38.67;;;;;7.92;95.70;98821.53;6282605;20;2870170;-59
2023/01/09 07:50:59;;;;;;;;;48.00;40.00;;;;;7.59;96.55;98812.06;6307883;20;2869065;-59
2023/01/09 07:53:28;;;;;;;;;66.00;49.33;;;;;7.73;97.06;98813.84;6277978;20;3635768;-59
2023/01/09 07:55:57;;;;;;;;;57.00;46.00;;;;;7.57;98.12;98808.63;6313488;20;2862879;-58
2023/01/09 07:58:26;;;;;;;;;69.00;53.33;;;;;7.63;98.37;98810.91;6280010;20;2887905;-58
2023/01/09 08:00:56;;;;;;;;;66.67;53.33;;;;;7.77;96.75;98806.50;6306862;20;2877363;-58
2023/01/09 08:03:26;;;;;;;;;60.33;48.67;;;;;7.68;98.55;98803.44;6311897;20;2859888;-58
2023/01/09 08:05:54;;;;;;;;;47.67;37.00;;;;;7.75;98.51;98808.41;6320909;20;3622287;-58
2023/01/09 08:08:24;;;;;;;;;64.33;48.67;;;;;7.68;97.02;98799.94;6283264;20;3619095;-58
2023/01/09 08:10:54;;;;;;;;;63.67;47.67;;;;;7.61;98.75;98802.16;6313570;20;2876557;-58
2023/01/09 08:13:23;;;;;;;;;65.00;50.00;;;;;7.75;98.63;98803.94;6310532;20;3647325;-58
2023/01/09 08:15:53;;;;;;;;;71.00;51.00;;;;;7.82;98.67;98799.03;6312424;20;3642968;-59
2023/01/09 08:18:21;;;;;;;;;59.50;48.00;;;;;7.63;100.00;98805.56;6314245;20;2844044;-58
2023/01/09 08:20:50;;;;;;;;;56.50;43.00;;;;;7.61;100.00;98802.16;6281109;20;2874633;-59
2023/01/09 08:23:20;;;;;;;;;66.00;52.00;;;;;7.70;98.94;98811.38;6279500;20;3631572;-58
2023/01/09 08:25:49;;;;;;;;;69.33;53.00;;;;;7.74;100.00;98804.91;6315700;20;3632556;-58
2023/01/09 08:28:18;;;;;;;;;53.00;41.00;;;;;7.66;99.74;98804.50;6313621;20;2864991;-59
2023/01/09 08:30:48;;;;;;;;;72.67;55.67;;;;;7.72;99.83;98800.59;6282318;20;3630967;-59
2023/01/09 08:33:17;;;;;;;;;80.00;60.33;;;;;7.69;100.00;98797.16;6307913;20;3637925;-58
2023/01/09 08:35:47;;;;;;;;;71.33;52.33;;;;;7.82;99.42;98788.34;6316096;20;3638880;-58
2023/01/09 08:38:16;;;;;;;;;64.00;48.00;;;;;7.68;98.59;98792.75;6311634;20;3633619;-58
2023/01/09 08:40:47;;;;;;;;;52.67;45.00;;;;;7.76;97.05;98786.06;6308072;20;2853484;-59
2023/01/09 08:49:04;;;;;;;;;51.33;39.33;;;;;7.67;99.13;98780.38;6280789;20;2857566;-58
2023/01/09 08:51:34;;;;;;;;;59.33;46.67;;;;;7.49;100.00;98789.56;6314900;20;2860827;-58
2023/01/09 08:54:03;;;;;;;;;57.33;44.33;;;;;7.65;100.00;98787.63;6307489;20;2879534;-58
2023/01/09 08:56:32;;;;;;;;;49.50;38.50;;;;;7.45;100.00;98791.56;6310254;20;2859784;-58
2023/01/09 08:59:01;;;;;;;;;47.67;40.67;;;;;7.24;100.00;98793.78;6282067;20;2861705;-59
2023/01/09 09:01:31;;;;;;;;;58.00;44.00;;;;;7.53;100.00;98803.56;6308713;20;2858780;-58
2023/01/09 09:04:01;;;;;;;;;56.33;44.00;;;;;7.59;100.00;98804.06;6312242;20;2862169;-58
2023/01/09 09:06:31;;;;;;;;;47.50;40.00;;;;;7.55;100.00;98802.50;6313217;20;2847172;-56
2023/01/09 09:09:02;;;;;;;;;64.33;50.33;;;;;7.74;100.00;98801.34;6280619;20;3634632;-59
2023/01/09 09:11:33;;;;;;;;;51.67;42.00;;;;;7.52;100.00;98796.53;6313166;20;2857157;-56
2023/01/09 09:16:54;;;;;;;;;54.00;40.67;;;;;7.53;100.00;98780.41;6319322;20;2867054;-58
2023/01/09 09:19:23;;;;;;;;;57.67;45.00;;;;;7.36;100.00;98768.09;6315231;20;2862806;-59
2023/01/09 09:21:52;;;;;;;;;56.33;45.33;;;;;7.47;100.00;98773.63;6316932;20;2869211;-57
2023/01/09 09:24:21;;;;;;;;;41.00;35.50;;;;;7.43;100.00;98760.59;6316861;20;2850252;-58
2023/01/09 09:26:50;;;;;;;;;49.50;42.50;;;;;7.36;100.00;98744.06;6284144;20;2850317;-58
2023/01/09 09:29:18;;;;;;;;;52.00;40.00;;;;;7.37;100.00;98742.25;6284822;20;2864928;-59
2023/01/09 09:31:48;;;;;;;;;51.67;38.00;;;;;7.37;100.00;98739.59;6286373;20;2863858;-59
2023/01/09 09:34:17;;;;;;;;;46.00;39.50;;;;;7.35;100.00;98733.50;6312514;20;2866966;-58
2023/01/09 09:36:46;;;;;;;;;56.50;43.00;;;;;7.28;100.00;98725.03;6282557;20;2847296;-58
2023/01/09 09:39:15;;;;;;;;;57.00;41.33;;;;;7.24;100.00;98716.34;6287638;20;3632495;-59
2023/01/09 09:45:55;;;;;;;;;53.00;43.50;;;;;7.33;100.00;98703.38;6279099;20;2852491;-56
2023/01/09 09:48:51;;;;;;;;;54.00;45.00;;;;;7.34;100.00;98705.94;6284955;20;2860689;-59
2023/01/09 09:52:19;;;;;;;;;59.00;47.00;;;;;7.34;100.00;98694.41;6284228;20;2875403;-59
2023/01/09 09:54:50;;;;;;;;;68.33;53.67;;;;;7.52;100.00;98700.38;6311552;20;3641944;-59
2023/01/09 09:57:35;;;;;;;;;60.67;47.67;;;;;7.22;100.00;98699.56;6313781;20;2877481;-59
2023/01/09 10:00:09;;;;;;;;;60.00;48.33;;;;;7.39;100.00;98692.28;6311923;20;2867991;-59
2023/01/09 10:03:07;;;;;;;;;56.00;43.33;;;;;7.38;100.00;98691.44;6311181;20;2864334;-58
2023/01/09 10:05:45;;;;;;;;;59.33;48.67;;;;;7.51;100.00;98680.81;6314831;20;2883589;-59
2023/01/09 10:09:11;;;;;;;;;53.67;41.33;;;;;7.36;100.00;98679.13;6312838;20;2870168;-59
2023/01/09 10:11:50;;;;;;;;;50.00;42.00;;;;;7.41;100.00;98682.38;6311348;20;2855529;-59
2023/01/09 10:14:19;;;;;;;;;54.00;44.50;;;;;7.45;100.00;98691.88;6280393;20;2851476;-58
2023/01/09 10:17:32;;;;;;;;;61.00;46.33;;;;;7.43;100.00;98680.47;6283915;20;3622148;-59
2023/01/09 10:20:54;;;;;;;;;42.33;36.00;;;;;7.39;100.00;98681.59;6311143;20;2854509;-59
2023/01/09 10:24:08;;;;;;;;;59.00;47.00;;;;;7.37;100.00;98663.03;6313191;20;2867020;-59
2023/01/09 10:26:50;;;;;;;;;62.67;49.00;;;;;7.40;100.00;98656.63;6314457;20;3623625;-59
2023/01/09 10:30:36;;;;;;;;;55.33;45.33;;;;;7.21;100.00;98664.97;6312736;20;2851429;-58
2023/01/09 10:33:35;;;;;;;;;48.67;42.00;;;;;7.19;100.00;98659.72;6311823;20;2869039;-58
2023/01/09 10:36:40;;;;;;;;;56.67;43.33;;;;;7.23;100.00;98666.56;6319545;20;3621079;-59
2023/01/09 10:39:23;;;;;;;;;55.67;42.33;;;;;7.28;100.00;98657.44;6284989;20;3626316;-58
2023/01/09 10:42:03;;;;;;;;;63.00;50.00;;;;;7.43;100.00;98657.28;6312906;20;2860760;-59
2023/01/09 10:45:00;;;;;;;;;67.33;52.00;;;;;7.23;100.00;98661.22;6278673;20;2869082;-57
2023/01/09 10:47:37;;;;;;;;;72.00;54.00;;;;;7.12;100.00;98692.25;6316947;20;3631681;-58
2023/01/09 10:50:21;;;;;;;;;56.00;46.00;;;;;7.09;100.00;98695.97;6280539;20;2856500;-59
2023/01/09 10:52:54;;;;;;;;;55.00;46.00;;;;;7.30;100.00;98674.22;6277424;20;2863797;-60
2023/01/09 10:55:48;;;;;;;;;56.33;45.33;;;;;7.34;100.00;98681.03;6278050;20;2867007;-58
2023/01/09 10:58:21;;;;;;;;;57.67;45.00;;;;;7.08;100.00;98680.91;6312067;20;3612151;-58
2023/01/09 11:00:51;;;;;;;;;59.67;45.00;;;;;7.24;100.00;98670.97;6312773;20;3628383;-58
2023/01/09 11:03:24;;;;;;;;;57.33;46.33;;;;;7.48;100.00;98667.66;6313705;20;3600314;-58
2023/01/09 11:05:58;;;;;;;;;53.00;39.67;;;;;7.55;100.00;98649.41;6314519;20;2866457;-60
2023/01/09 11:08:40;;;;;;;;;52.50;44.00;;;;;7.35;100.00;98645.41;6316790;20;2852432;-59
2023/01/09 11:11:11;;;;;;;;;60.00;46.67;;;;;7.66;100.00;98634.41;6282363;20;2861956;-58
2023/01/09 11:13:46;;;;;;;;;71.67;53.33;;;;;7.46;100.00;98630.38;6313058;20;3636691;-57
2023/01/09 11:16:20;;;;;;;;;68.67;49.67;;;;;7.53;100.00;98637.97;6277664;20;3633694;-57
2023/01/09 11:18:59;;;;;;;;;61.33;46.33;;;;;7.20;100.00;98632.06;6314593;20;3621150;-58
2023/01/09 11:21:39;;;;;;;;;65.00;48.33;;;;;7.34;100.00;98632.97;6310341;20;3623303;-58
2023/01/09 11:24:20;;;;;;;;;59.33;45.67;;;;;7.19;100.00;98630.38;6315596;20;2874365;-58
2023/01/09 11:27:13;;;;;;;;;56.00;45.50;;;;;7.31;100.00;98611.84;6316180;20;2866055;-58
2023/01/09 11:29:43;;;;;;;;;68.00;52.33;;;;;7.26;100.00;98604.97;6282626;20;3632561;-58
2023/01/09 11:32:23;;;;;;;;;67.67;49.67;;;;;7.21;100.00;98596.44;6311245;20;3638476;-57
2023/01/09 11:34:52;;;;;;;;;72.00;55.00;;;;;7.30;100.00;98599.44;6310783;20;3615906;-58
2023/01/09 11:37:29;;;;;;;;;66.00;52.00;;;;;7.09;100.00;98597.22;6313147;20;3632547;-58
2023/01/09 11:40:00;;;;;;;;;72.33;53.33;;;;;7.17;100.00;98607.41;6311459;20;3654545;-58
2023/01/09 11:45:29;;;;;;;;;126.25;94.00;;;;;7.31;100.00;98601.16;6283812;20;4472246;-59
2023/01/09 11:47:58;;;;;;;;;73.67;54.00;;;;;7.29;100.00;98593.22;6279534;20;3635696;-58
2023/01/09 11:50:31;;;;;;;;;76.67;58.33;;;;;7.35;100.00;98595.50;6310071;20;3634891;-59
2023/01/09 11:53:18;;;;;;;;;68.50;52.00;;;;;7.34;100.00;98595.59;6311490;20;3500260;-58
2023/01/09 11:55:59;;;;;;;;;78.33;59.00;;;;;7.33;100.00;98596.56;6308255;20;3633745;-59
2023/01/09 11:58:33;;;;;;;;;73.00;54.33;;;;;7.43;100.00;98589.66;6314342;20;3633699;-58